createdAt,value
2019-02-09T14:30:57.935Z,194.07
2019-02-09T14:33:26.430Z,194.37
2019-02-09T14:35:54.965Z,174.60
2019-02-09T14:38:23.468Z,160.03
2019-02-09T14:40:51.975Z,151.50
2019-02-09T14:43:20.517Z,141.97
2019-02-09T14:45:49.014Z,118.90
2019-02-09T14:48:17.528Z,135.03
2019-02-09T14:50:46.037Z,117.13
2019-02-09T14:53:14.534Z,111.50
2019-02-09T14:55:43.036Z,104.27
2019-02-09T14:58:11.537Z,102.57
2019-02-09T15:00:42.730Z,88.23
2019-02-09T15:03:11.670Z,87.20
2019-02-09T15:05:40.238Z,89.83
2019-02-09T15:08:08.774Z,79.33
2019-02-09T15:10:37.268Z,81.10
2019-02-09T15:13:06.854Z,79.83
2019-02-09T15:15:38.371Z,70.30
2019-02-09T15:18:08.291Z,64.23
2019-02-09T15:20:39.445Z,66.00
2019-02-09T15:23:07.934Z,59.63
2019-02-09T15:25:36.440Z,55.23
2019-02-09T15:28:05.321Z,57.87
2019-02-09T15:30:33.837Z,51.13
2019-02-09T15:33:02.326Z,50.93
2019-02-09T15:35:30.814Z,51.23
2019-02-09T15:37:59.319Z,49.47
2019-02-09T15:40:27.846Z,45.53
2019-02-09T15:42:57.352Z,45.60
2019-02-09T15:45:25.855Z,43.33
2019-02-09T15:47:54.352Z,45.23
2019-02-09T15:50:22.873Z,41.70
2019-02-09T15:52:51.363Z,41.10
2019-02-09T15:55:19.984Z,41.27
2019-02-09T15:57:48.683Z,41.57
2019-02-09T16:00:24.949Z,34.33
2019-02-09T16:02:52.888Z,30.47
2019-02-09T16:05:20.327Z,27.10
2019-02-09T16:08:56.423Z,26.33
2019-02-09T16:14:13.427Z,19.20
2019-02-09T16:16:41.913Z,17.00
2019-02-09T16:19:10.413Z,16.73
2019-02-09T16:21:38.950Z,17.37
2019-02-09T16:24:08.645Z,17.73
2019-02-09T16:26:37.137Z,16.30
2019-02-09T16:29:05.662Z,16.23
2019-02-09T16:31:34.191Z,15.73
2019-02-09T16:34:02.678Z,15.23
2019-02-09T16:36:31.183Z,15.27
2019-02-09T16:38:59.716Z,15.60
2019-02-09T16:41:28.542Z,14.23
2019-02-09T16:43:57.033Z,16.07
2019-02-09T16:46:25.522Z,15.13
2019-02-09T16:48:54.010Z,15.53
2019-02-09T16:51:22.518Z,15.40
2019-02-09T16:53:51.046Z,15.90
2019-02-09T16:56:19.529Z,15.60
2019-02-09T16:58:48.054Z,16.27
2019-02-09T17:01:16.573Z,15.90
2019-02-09T17:03:45.066Z,15.73
2019-02-09T17:06:13.548Z,15.53
2019-02-09T17:08:42.117Z,15.27
2019-02-09T17:11:10.629Z,16.07
2019-02-09T17:13:39.134Z,16.00
2019-02-09T17:16:07.647Z,15.33
2019-02-09T17:18:36.160Z,15.63
2019-02-09T17:21:04.647Z,14.17
2019-02-09T17:23:33.147Z,14.33
2019-02-09T17:26:01.634Z,14.80
2019-02-09T17:28:30.374Z,15.67
2019-02-09T17:30:58.854Z,15.00
2019-02-09T17:33:27.345Z,15.50
2019-02-09T17:35:55.841Z,16.13
2019-02-09T17:38:24.343Z,14.70
2019-02-09T17:40:52.863Z,15.80
2019-02-09T17:43:24.227Z,15.27
2019-02-09T17:45:55.901Z,14.77
2019-02-09T17:48:24.412Z,14.20
2019-02-09T17:50:52.901Z,15.00
2019-02-09T17:53:21.430Z,14.50
2019-02-09T17:55:49.922Z,14.93
2019-02-09T17:58:18.406Z,15.80
2019-02-09T18:00:51.260Z,16.27
2019-02-09T18:03:19.759Z,13.53
2019-02-09T18:05:48.380Z,14.37
2019-02-09T18:08:16.874Z,13.77
2019-02-09T18:10:45.441Z,14.07
2019-02-09T18:13:13.969Z,13.57
2019-02-09T18:15:42.474Z,13.93
2019-02-09T18:18:10.961Z,13.60
2019-02-09T18:20:41.146Z,13.33
2019-02-09T18:23:09.628Z,12.10
2019-02-09T18:25:38.113Z,13.07
2019-02-09T18:28:06.617Z,12.57
2019-02-09T18:30:35.117Z,13.43
2019-02-09T18:33:03.861Z,11.77
2019-02-09T18:35:32.341Z,13.10
2019-02-09T18:38:00.837Z,13.68
2019-02-09T18:40:29.432Z,12.83
2019-02-09T18:42:57.880Z,12.80
2019-02-09T18:45:27.105Z,11.97
2019-02-09T18:47:55.706Z,12.23
2019-02-09T18:50:25.370Z,12.53
2019-02-09T18:52:53.873Z,11.77
2019-02-09T18:55:23.290Z,11.67
2019-02-09T18:57:51.773Z,12.47
2019-02-09T19:00:22.479Z,12.07
2019-02-09T19:02:50.993Z,12.13
2019-02-09T19:05:19.494Z,11.30
2019-02-09T19:07:48.004Z,10.77
2019-02-09T19:10:18.568Z,11.50
2019-02-09T19:12:47.125Z,12.23
2019-02-09T19:15:17.020Z,10.17
2019-02-09T19:17:45.513Z,10.10
2019-02-09T19:20:17.009Z,11.00
2019-02-09T19:22:45.527Z,10.53
2019-02-09T19:25:14.565Z,10.13
2019-02-09T19:27:43.318Z,11.03
2019-02-09T19:30:15.402Z,10.53
2019-02-09T19:32:43.893Z,10.97
2019-02-09T19:35:12.389Z,10.53
2019-02-09T19:37:40.917Z,10.70
2019-02-09T19:40:10.173Z,10.37
2019-02-09T19:42:38.687Z,10.37
2019-02-09T19:45:10.705Z,10.13
2019-02-09T19:47:39.219Z,10.10
2019-02-09T19:50:08.793Z,10.93
2019-02-09T19:52:37.332Z,9.30
2019-02-09T19:55:06.959Z,10.33
2019-02-09T19:57:35.495Z,10.50
2019-02-09T20:00:05.476Z,9.40
2019-02-09T20:02:33.974Z,9.47
2019-02-09T20:05:02.488Z,10.20
2019-02-09T20:07:30.976Z,9.57
2019-02-09T20:09:59.477Z,9.77
2019-02-09T20:12:27.969Z,9.53
2019-02-09T20:14:56.477Z,10.28
2019-02-09T20:17:24.979Z,9.20
2019-02-09T20:19:53.493Z,9.43
2019-02-09T20:22:22.091Z,9.70
2019-02-09T20:24:50.639Z,8.90
2019-02-09T20:27:19.164Z,9.27
2019-02-09T20:29:47.719Z,9.50
2019-02-09T20:32:16.224Z,9.43
2019-02-09T20:34:44.712Z,9.00
2019-02-09T20:37:13.447Z,9.77
2019-02-09T20:39:41.949Z,9.80
2019-02-09T20:42:10.573Z,9.03
2019-02-09T20:44:39.150Z,8.80
2019-02-09T20:47:10.113Z,8.90
2019-02-09T20:49:38.593Z,8.50
2019-02-09T20:52:07.113Z,8.80
2019-02-09T20:54:35.889Z,9.10
2019-02-09T20:57:04.368Z,8.20
2019-02-09T20:59:32.864Z,8.70
2019-02-09T21:02:01.621Z,8.63
2019-02-09T21:04:30.106Z,8.20
2019-02-09T21:06:58.589Z,8.33
2019-02-09T21:09:27.109Z,8.75
2019-02-09T21:11:55.672Z,8.30
2019-02-09T21:14:24.168Z,7.80
2019-02-09T21:16:52.685Z,7.07
2019-02-09T21:19:21.199Z,7.40
2019-02-09T21:21:49.684Z,7.17
2019-02-09T21:24:18.448Z,7.53
2019-02-09T21:26:46.928Z,7.83
2019-02-09T21:29:15.437Z,7.40
2019-02-09T21:31:43.924Z,7.20
2019-02-09T21:34:12.399Z,7.30
2019-02-09T21:36:40.895Z,7.97
2019-02-09T21:39:09.864Z,7.67
2019-02-09T21:41:38.636Z,6.93
2019-02-09T21:44:07.133Z,8.60
2019-02-09T21:46:35.615Z,6.93
2019-02-09T21:49:04.384Z,7.23
2019-02-09T21:51:32.865Z,6.97
2019-02-09T21:54:01.345Z,6.87
2019-02-09T21:56:29.856Z,7.17
2019-02-09T21:58:58.381Z,7.53
2019-02-09T22:01:26.884Z,7.33
2019-02-09T22:03:55.397Z,7.40
2019-02-09T22:06:23.895Z,7.23
2019-02-09T22:08:52.394Z,7.07
2019-02-09T22:11:21.029Z,7.47
2019-02-09T22:13:50.474Z,6.53
2019-02-09T22:16:19.122Z,6.07
2019-02-09T22:18:47.901Z,6.73
2019-02-09T22:21:17.157Z,7.42
2019-02-09T22:23:45.774Z,6.10
2019-02-09T22:26:14.296Z,7.00
2019-02-09T22:28:42.741Z,6.23
2019-02-09T22:31:11.344Z,6.20
2019-02-09T22:33:39.965Z,6.83
2019-02-09T22:36:08.470Z,6.47
2019-02-09T22:38:36.991Z,7.07
2019-02-09T22:41:05.638Z,5.77
2019-02-09T22:43:34.153Z,6.50
2019-02-09T22:46:02.653Z,6.67
2019-02-09T22:48:31.575Z,5.87
2019-02-09T22:51:00.381Z,5.77
2019-02-09T22:53:28.870Z,6.70
2019-02-09T22:55:57.374Z,6.20
2019-02-09T22:58:25.982Z,6.07
2019-02-09T23:01:22.031Z,6.33
2019-02-09T23:04:06.298Z,5.23
2019-02-09T23:07:00.122Z,6.17
2019-02-09T23:09:30.684Z,5.57
2019-02-09T23:11:59.184Z,5.80
2019-02-09T23:14:27.807Z,6.03
2019-02-09T23:16:56.301Z,6.73
2019-02-09T23:19:24.788Z,5.90
2019-02-09T23:21:53.344Z,6.20
2019-02-09T23:24:21.825Z,5.80
2019-02-09T23:26:50.357Z,5.70
2019-02-09T23:29:18.973Z,5.30
2019-02-09T23:31:47.464Z,5.03
2019-02-09T23:34:16.089Z,6.10
2019-02-09T23:36:44.600Z,5.20
2019-02-09T23:39:13.120Z,4.83
2019-02-09T23:41:41.617Z,5.07
2019-02-09T23:44:10.156Z,5.50
2019-02-09T23:46:38.804Z,5.53
2019-02-09T23:49:07.349Z,5.20
2019-02-09T23:51:35.872Z,5.33
2019-02-09T23:54:04.380Z,5.53
2019-02-09T23:56:32.880Z,5.20
2019-02-09T23:59:01.415Z,4.97
